Time;durP1;ratioP1;P1;durP2;ratioP2;P2;SDS_P1;SDS_P2;PMS_P1;PMS_P2;Temp;Humidity;BMP_temperature;BMP_pressure;BME280_temperature;BME280_humidity;BME280_pressure;Samples;Min_cycle;Max_cycle;Signal;HPM_P1;HPM_P2
2022/11/01 00:01:30;;;;;;;18.58;9.13;;;;;;;14.27;96.88;100412.97;4923724;29;20110;-79
2022/11/01 00:03:57;;;;;;;18.92;9.93;;;;;;;14.35;96.20;100409.41;4920855;29;20056;-77
2022/11/01 00:06:25;;;;;;;14.68;9.18;;;;;;;14.40;95.61;100401.78;4920431;29;20130;-77
2022/11/01 00:08:52;;;;;;;19.83;9.48;;;;;;;14.47;95.20;100392.16;4925369;29;20062;-77
2022/11/01 00:11:19;;;;;;;12.45;8.35;;;;;;;14.48;94.79;100399.06;4927452;29;20091;-78
2022/11/01 00:13:48;;;;;;;17.40;9.45;;;;;;;14.49;94.93;100389.34;4932648;29;20120;-78
2022/11/01 00:16:16;;;;;;;17.95;9.32;;;;;;;14.53;94.78;100385.34;4919631;29;20155;-77
2022/11/01 00:18:43;;;;;;;15.75;8.25;;;;;;;14.48;94.78;100382.44;4930157;29;20058;-77
2022/11/01 00:21:10;;;;;;;17.05;8.93;;;;;;;14.48;94.88;100379.81;4925995;29;20544;-77
2022/11/01 00:23:38;;;;;;;20.88;9.75;;;;;;;14.50;94.71;100364.66;4922885;29;20183;-78
2022/11/01 00:26:06;;;;;;;17.80;9.05;;;;;;;14.58;94.16;100354.00;4932805;29;20138;-77
2022/11/01 00:28:33;;;;;;;24.77;9.40;;;;;;;14.57;94.41;100362.91;4920294;29;20143;-77
2022/11/01 00:31:00;;;;;;;15.80;8.40;;;;;;;14.49;95.21;100368.28;4929127;29;20127;-77
2022/11/01 00:33:27;;;;;;;15.00;8.48;;;;;;;14.44;96.16;100366.22;4925096;29;20111;-77
2022/11/01 00:35:54;;;;;;;14.15;9.23;;;;;;;14.42;97.39;100352.41;4928132;29;20115;-78
2022/11/01 00:38:20;;;;;;;15.40;9.55;;;;;;;14.43;96.69;100369.03;4921441;29;20131;-79
2022/11/01 00:40:48;;;;;;;15.15;8.57;;;;;;;14.39;98.08;100365.91;4927887;29;20103;-79
2022/11/01 00:43:15;;;;;;;19.00;9.02;;;;;;;14.42;97.36;100354.22;4939233;29;20142;-79
2022/11/01 00:45:43;;;;;;;17.08;9.40;;;;;;;14.41;97.30;100350.78;4932950;29;20127;-78
2022/11/01 00:48:11;;;;;;;19.90;9.02;;;;;;;14.41;97.18;100350.78;4925247;29;20064;-79
2022/11/01 00:50:38;;;;;;;17.60;8.52;;;;;;;14.46;96.63;100358.94;4942332;29;20582;-78
2022/11/01 00:53:04;;;;;;;19.25;9.52;;;;;;;14.37;97.97;100365.28;4930729;29;20071;-79
2022/11/01 00:55:31;;;;;;;15.65;8.85;;;;;;;14.29;98.96;100374.13;4931397;29;20090;-79
2022/11/01 00:57:59;;;;;;;15.52;8.70;;;;;;;14.31;98.68;100371.28;4938208;29;20083;-78
2022/11/01 01:00:26;;;;;;;16.52;8.48;;;;;;;14.47;97.09;100368.47;4927828;29;20067;-79
2022/11/01 01:02:52;;;;;;;20.30;8.98;;;;;;;14.54;95.92;100365.91;4932052;29;20071;-78
2022/11/01 01:05:19;;;;;;;18.50;8.55;;;;;;;14.58;95.83;100362.72;4934255;29;20152;-79
2022/11/01 01:07:46;;;;;;;13.77;8.45;;;;;;;14.58;95.79;100361.91;4934198;29;20318;-79
2022/11/01 01:10:12;;;;;;;17.38;9.13;;;;;;;14.66;95.55;100359.09;4939318;29;20060;-78
2022/11/01 01:12:39;;;;;;;16.63;8.52;;;;;;;14.75;95.15;100365.88;4951796;29;20556;-77
2022/11/01 01:15:09;;;;;;;18.33;8.60;;;;;;;14.77;94.92;100363.06;4969858;23;20075;-79
2022/11/01 01:17:35;;;;;;;18.45;8.73;;;;;;;14.74;94.93;100358.97;4949932;29;20451;-79
2022/11/01 01:20:02;;;;;;;16.27;8.18;;;;;;;14.74;95.32;100358.97;4960712;29;20110;-81
2022/11/01 01:22:29;;;;;;;16.08;9.23;;;;;;;14.79;95.50;100356.59;4958899;29;20079;-81
2022/11/01 01:24:55;;;;;;;13.50;8.68;;;;;;;14.75;95.92;100357.97;4956414;29;20138;-81
2022/11/01 01:27:22;;;;;;;14.35;8.18;;;;;;;14.72;96.78;100353.09;4951085;29;20124;-82
2022/11/01 01:29:48;;;;;;;16.00;8.38;;;;;;;14.78;96.62;100357.59;4942848;29;20107;-81
2022/11/01 01:32:18;;;;;;;18.60;8.65;;;;;;;14.87;96.09;100353.81;4948176;29;20464;-83
2022/11/01 01:34:45;;;;;;;17.00;9.13;;;;;;;14.80;96.82;100363.50;4945229;29;20142;-79
2022/11/01 01:37:13;;;;;;;12.15;8.90;;;;;;;14.73;97.58;100354.72;4958380;29;20055;-80
2022/11/01 01:39:41;;;;;;;15.50;8.30;;;;;;;14.85;96.63;100369.00;4953195;29;20083;-80
2022/11/01 01:42:16;;;;;;;15.95;9.15;;;;;;;14.88;96.31;100360.72;4944246;29;20521;-80
2022/11/01 01:45:15;;;;;;;18.05;8.38;;;;;;;14.90;96.34;100358.72;4942257;29;20483;-79
2022/11/01 01:47:46;;;;;;;16.95;8.63;;;;;;;14.87;96.14;100361.72;4941012;29;20047;-81
2022/11/01 01:50:17;;;;;;;16.98;9.38;;;;;;;14.76;97.49;100364.88;4944323;29;20075;-82
2022/11/01 01:52:51;;;;;;;18.13;8.48;;;;;;;14.87;97.06;100372.28;4944842;29;20082;-81
2022/11/01 01:55:21;;;;;;;17.42;8.75;;;;;;;14.84;97.01;100356.03;4945143;29;20090;-79
2022/11/01 01:57:49;;;;;;;15.60;8.80;;;;;;;14.85;97.29;100368.19;4944206;29;20177;-77
2022/11/01 02:00:15;;;;;;;12.98;8.18;;;;;;;14.75;97.82;100363.25;4944323;29;20119;-80
2022/11/01 02:02:44;;;;;;;18.95;8.82;;;;;;;14.81;98.26;100367.75;4965208;29;20497;-79
2022/11/01 02:05:15;;;;;;;16.25;8.38;;;;;;;14.81;97.93;100364.31;4961792;29;20083;-80
2022/11/01 02:07:44;;;;;;;20.42;8.60;;;;;;;14.79;97.92;100359.22;4949984;29;20103;-80
2022/11/01 02:10:14;;;;;;;17.95;8.07;;;;;;;14.80;98.20;100362.69;4942810;29;20044;-80
2022/11/01 02:12:46;;;;;;;15.52;7.88;;;;;;;14.79;97.60;100355.78;4946079;29;20160;-79
2022/11/01 02:15:13;;;;;;;13.25;8.02;;;;;;;14.78;98.15;100362.06;4947064;29;20126;-80
2022/11/01 02:17:53;;;;;;;16.95;8.30;;;;;;;14.73;98.77;100369.69;4963171;29;20077;-80
2022/11/01 02:20:40;;;;;;;14.15;8.27;;;;;;;14.69;98.91;100350.81;4961539;29;20120;-79
2022/11/01 02:23:31;;;;;;;14.60;8.10;;;;;;;14.65;99.09;100357.47;4961864;29;20634;-81
2022/11/01 02:26:21;;;;;;;14.82;7.40;;;;;;;14.61;99.43;100345.72;4963228;29;20102;-82
2022/11/01 02:28:58;;;;;;;15.30;7.82;;;;;;;14.63;99.52;100356.88;4962167;29;20135;-82
2022/11/01 02:31:39;;;;;;;14.98;8.23;;;;;;;14.59;99.32;100345.09;4951650;29;20078;-81
2022/11/01 02:34:14;;;;;;;11.55;7.13;;;;;;;14.62;99.54;100349.97;4945564;29;20055;-82
2022/11/01 02:36:45;;;;;;;14.95;7.68;;;;;;;14.66;99.90;100360.91;4953654;29;20056;-80
2022/11/01 02:39:20;;;;;;;14.57;7.32;;;;;;;14.62;100.00;100352.63;4947489;29;20051;-80
2022/11/01 02:41:54;;;;;;;12.90;6.85;;;;;;;14.56;100.00;100363.91;4952805;29;20052;-79
2022/11/01 02:44:24;;;;;;;10.35;7.25;;;;;;;14.68;100.00;100357.09;4953491;29;20130;-80
2022/11/01 02:47:03;;;;;;;11.70;7.18;;;;;;;14.64;100.00;100357.69;4955692;29;20075;-79
2022/11/01 02:49:35;;;;;;;13.77;7.07;;;;;;;14.65;100.00;100348.78;4955781;29;20138;-79
2022/11/01 02:52:03;;;;;;;10.38;6.70;;;;;;;14.70;100.00;100355.09;4955853;29;20161;-79
2022/11/01 02:54:32;;;;;;;12.80;7.80;;;;;;;14.73;100.00;100351.28;4956099;29;20138;-80
2022/11/01 02:57:05;;;;;;;11.45;7.35;;;;;;;14.78;100.00;100347.06;4960010;29;20055;-80
2022/11/01 02:59:42;;;;;;;11.98;6.20;;;;;;;14.76;100.00;100343.00;4959439;28;20473;-80
2022/11/01 03:02:14;;;;;;;12.27;6.50;;;;;;;14.84;100.00;100350.75;4943644;29;20083;-80
2022/11/01 03:04:42;;;;;;;12.25;6.70;;;;;;;14.84;100.00;100356.84;4939436;29;20531;-78
2022/11/01 03:07:13;;;;;;;10.93;6.03;;;;;;;14.89;100.00;100356.28;4956398;29;20541;-79
2022/11/01 03:09:41;;;;;;;11.88;6.53;;;;;;;15.01;100.00;100356.56;4943907;29;20403;-79
2022/11/01 03:12:15;;;;;;;11.80;6.20;;;;;;;15.09;100.00;100361.72;4935926;29;20142;-80
2022/11/01 03:14:49;;;;;;;10.98;6.00;;;;;;;15.05;100.00;100361.28;4938213;29;20090;-81
2022/11/01 03:17:23;;;;;;;9.90;5.95;;;;;;;15.11;100.00;100364.97;4939660;29;20051;-77
2022/11/01 03:19:55;;;;;;;8.45;6.00;;;;;;;15.16;100.00;100365.19;4938224;29;20142;-80
2022/11/01 03:22:29;;;;;;;10.13;6.13;;;;;;;15.22;99.68;100370.50;4937497;29;20131;-79
2022/11/01 03:25:36;;;;;;;10.70;6.43;;;;;;;15.22;99.47;100377.59;4948316;29;20083;-78
2022/11/01 03:27:54;;;;;;;11.40;7.13;;;;;;;15.15;99.45;100382.00;4957502;29;20062;-79
2022/11/01 03:30:21;;;;;;;9.57;6.63;;;;;;;15.27;99.17;100375.19;4947516;29;20075;-80
2022/11/01 03:32:52;;;;;;;11.93;5.82;;;;;;;15.25;98.71;100383.28;4958435;29;20047;-78
2022/11/01 03:35:24;;;;;;;13.05;6.32;;;;;;;15.20;99.21;100371.69;4962994;29;20126;-78
2022/11/01 03:37:55;;;;;;;14.68;6.63;;;;;;;15.27;99.02;100373.38;4960892;29;20134;-79
2022/11/01 03:40:24;;;;;;;13.23;7.32;;;;;;;15.25;98.90;100380.66;4961553;29;20085;-80
2022/11/01 03:42:54;;;;;;;12.27;6.78;;;;;;;15.17;99.30;100385.25;4962109;29;20094;-79
2022/11/01 03:45:24;;;;;;;10.23;5.97;;;;;;;15.12;99.72;100390.31;4952102;29;20130;-79
2022/11/01 03:47:51;;;;;;;13.10;6.57;;;;;;;15.13;99.85;100391.91;4941296;29;20127;-82
2022/11/01 03:50:25;;;;;;;14.10;6.50;;;;;;;15.20;99.60;100392.78;4944399;29;20147;-81
2022/11/01 03:52:52;;;;;;;13.45;6.65;;;;;;;15.12;99.73;100404.28;4943256;29;20404;-81
2022/11/01 03:55:20;;;;;;;10.75;5.90;;;;;;;15.06;100.00;100401.63;4943340;29;20463;-81
2022/11/01 03:57:48;;;;;;;10.68;6.28;;;;;;;14.97;100.00;100397.47;4943420;29;20087;-81
2022/11/01 04:00:16;;;;;;;13.45;7.03;;;;;;;14.98;100.00;100405.19;4942891;29;20119;-83
2022/11/01 04:02:43;;;;;;;12.68;6.45;;;;;;;15.11;100.00;100418.50;4962123;29;20598;-82
2022/11/01 04:05:10;;;;;;;9.20;6.18;;;;;;;15.09;99.90;100406.50;4949613;29;20111;-80
2022/11/01 04:07:39;;;;;;;11.18;5.95;;;;;;;15.05;100.00;100413.97;4944513;29;20083;-80
2022/11/01 04:10:06;;;;;;;11.13;6.22;;;;;;;15.10;100.00;100431.84;4942842;29;20083;-80
2022/11/01 04:12:33;;;;;;;13.02;5.93;;;;;;;15.13;99.76;100428.81;4941000;29;20123;-79
2022/11/01 04:20:34;;;;;;;10.50;6.40;;;;;;;15.22;99.00;100430.31;4946246;29;20534;-79
2022/11/01 04:23:05;;;;;;;10.93;6.00;;;;;;;15.25;98.82;100440.47;4940293;29;20087;-80
2022/11/01 04:25:33;;;;;;;12.60;5.80;;;;;;;15.17;98.97;100451.16;4940321;29;20090;-81
2022/11/01 04:28:00;;;;;;;10.75;5.90;;;;;;;15.17;99.14;100459.88;4939770;29;20486;-82
2022/11/01 04:30:28;;;;;;;14.27;5.95;;;;;;;15.14;99.09;100457.59;4943941;29;20126;-81
2022/11/01 04:32:55;;;;;;;13.88;6.35;;;;;;;15.10;99.75;100464.28;4961677;29;20051;-82
2022/11/01 04:35:23;;;;;;;13.82;6.80;;;;;;;15.09;99.81;100469.75;4961127;29;20109;-81
2022/11/01 04:37:56;;;;;;;11.10;6.15;;;;;;;15.13;99.83;100478.88;4960585;29;20562;-79
2022/11/01 04:40:26;;;;;;;9.32;6.05;;;;;;;15.19;99.53;100475.50;4961466;29;20130;-80
2022/11/01 04:42:53;;;;;;;13.85;6.72;;;;;;;15.23;99.06;100474.94;4961553;29;20055;-82
2022/11/01 04:45:20;;;;;;;10.25;6.18;;;;;;;15.14;99.24;100483.97;4954511;29;20090;-81
2022/11/01 04:47:51;;;;;;;13.68;6.30;;;;;;;15.16;99.35;100481.13;4959499;29;20258;-81
2022/11/01 04:50:18;;;;;;;15.23;6.47;;;;;;;15.05;99.78;100468.50;4959592;29;20063;-81
2022/11/01 04:52:45;;;;;;;11.75;6.25;;;;;;;15.08;99.90;100483.94;4964604;29;20511;-80
2022/11/01 04:55:12;;;;;;;10.07;6.57;;;;;;;15.06;99.86;100486.75;4968471;29;20047;-81
2022/11/01 04:57:41;;;;;;;12.63;6.38;;;;;;;14.99;100.00;100491.13;4967759;29;20085;-82
2022/11/01 05:00:10;;;;;;;12.15;5.82;;;;;;;14.94;100.00;100504.88;4963846;29;20051;-82
2022/11/01 05:02:37;;;;;;;11.18;6.07;;;;;;;14.86;100.00;100497.09;4944680;29;20056;-82
2022/11/01 05:05:05;;;;;;;12.35;5.70;;;;;;;14.98;100.00;100496.59;4941881;29;20051;-82
2022/11/01 05:07:32;;;;;;;12.15;6.25;;;;;;;14.94;100.00;100499.59;4946360;29;20076;-82
2022/11/01 05:09:59;;;;;;;13.40;6.10;;;;;;;14.93;100.00;100497.97;4949050;29;20051;-82
2022/11/01 05:12:26;;;;;;;11.43;6.13;;;;;;;14.96;100.00;100515.22;4950838;29;20058;-81
2022/11/01 05:14:54;;;;;;;12.35;6.07;;;;;;;15.00;100.00;100513.84;4944012;29;20143;-80
2022/11/01 05:17:20;;;;;;;12.10;6.28;;;;;;;15.00;100.00;100507.78;4941215;29;20110;-80
2022/11/01 05:19:47;;;;;;;13.02;5.75;;;;;;;15.00;100.00;100516.50;4940467;29;20079;-81
2022/11/01 05:22:14;;;;;;;13.65;6.00;;;;;;;15.00;100.00;100518.31;4939743;29;20062;-79
2022/11/01 05:24:40;;;;;;;13.80;6.30;;;;;;;14.99;100.00;100521.94;4944540;29;20086;-81
2022/11/01 05:27:07;;;;;;;10.93;6.00;;;;;;;14.97;100.00;100535.31;4945172;29;20135;-82
2022/11/01 05:29:33;;;;;;;9.75;5.90;;;;;;;15.01;100.00;100531.28;4944537;29;20138;-83
2022/11/01 05:32:02;;;;;;;11.95;5.68;;;;;;;15.05;100.00;100537.00;4960227;29;20043;-82
2022/11/01 05:34:28;;;;;;;7.85;5.78;;;;;;;15.08;99.80;100544.53;4964027;29;20057;-82
2022/11/01 05:36:55;;;;;;;9.35;5.65;;;;;;;15.11;99.59;100549.44;4962401;29;20087;-82
2022/11/01 05:39:22;;;;;;;11.38;5.60;;;;;;;15.16;98.97;100550.47;4962371;29;20055;-80
2022/11/01 05:41:48;;;;;;;10.98;5.20;;;;;;;15.19;98.40;100551.94;4961402;29;20082;-80
2022/11/01 05:44:15;;;;;;;7.75;5.43;;;;;;;15.26;97.97;100555.44;4941501;29;20054;-79
2022/11/01 05:46:42;;;;;;;8.68;5.47;;;;;;;15.24;97.79;100565.38;4953860;29;20051;-79
2022/11/01 05:49:10;;;;;;;9.63;5.53;;;;;;;15.20;97.43;100569.38;4955650;29;20130;-79
2022/11/01 05:51:38;;;;;;;9.80;5.28;;;;;;;15.15;97.63;100569.13;4955661;29;20137;-79
2022/11/01 05:54:05;;;;;;;14.07;5.78;;;;;;;15.09;97.75;100577.81;4956133;29;20057;-79
2022/11/01 05:56:31;;;;;;;12.65;5.30;;;;;;;15.05;97.67;100568.63;4956281;29;20141;-79
2022/11/01 05:58:58;;;;;;;12.82;5.43;;;;;;;14.98;97.56;100567.75;4956706;29;20198;-79
2022/11/01 06:01:24;;;;;;;9.18;4.97;;;;;;;14.85;97.82;100577.13;4960297;29;20101;-79
2022/11/01 06:03:51;;;;;;;7.93;5.05;;;;;;;14.79;98.09;100575.22;4968415;29;20062;-80
2022/11/01 06:06:19;;;;;;;11.95;5.53;;;;;;;14.74;98.29;100589.94;4969743;29;20097;-80
2022/11/01 06:08:46;;;;;;;10.23;6.10;;;;;;;14.82;97.56;100598.56;4965302;29;20093;-79
2022/11/01 06:11:12;;;;;;;11.00;5.30;;;;;;;14.80;96.46;100602.38;4961602;29;20139;-78
2022/11/01 06:13:39;;;;;;;15.20;5.90;;;;;;;14.71;96.81;100612.19;4955348;29;20138;-79
2022/11/01 06:16:06;;;;;;;11.02;5.50;;;;;;;14.72;96.71;100619.09;4952374;29;20059;-82
2022/11/01 06:18:33;;;;;;;9.73;5.53;;;;;;;14.71;96.74;100628.00;4963101;29;20106;-81
2022/11/01 06:21:00;;;;;;;12.02;5.55;;;;;;;14.66;96.90;100635.63;4963856;29;20074;-81
2022/11/01 06:23:28;;;;;;;12.38;5.88;;;;;;;14.65;96.56;100646.38;4963747;29;20074;-81
2022/11/01 06:26:00;;;;;;;11.05;4.68;;;;;;;14.92;92.09;100649.16;4963555;29;20086;-82
2022/11/01 06:28:26;;;;;;;6.13;4.40;;;;;;;15.25;88.60;100648.72;4962913;29;20082;-81
2022/11/01 06:30:53;;;;;;;7.68;3.75;;;;;;;15.31;85.32;100655.88;4956027;29;20127;-81
2022/11/01 06:33:19;;;;;;;12.02;4.03;;;;;;;15.41;82.54;100659.03;4945063;29;20078;-81
2022/11/01 06:35:46;;;;;;;6.60;3.28;;;;;;;15.30;80.43;100677.16;4942748;29;20087;-79
2022/11/01 06:38:13;;;;;;;5.68;3.63;;;;;;;15.15;78.33;100674.53;4943003;29;20083;-81
2022/11/01 06:40:41;;;;;;;6.80;2.90;;;;;;;15.05;76.98;100676.69;4943175;29;20126;-81
2022/11/01 06:43:07;;;;;;;10.57;3.00;;;;;;;14.93;77.09;100684.22;4942789;29;20083;-80
2022/11/01 06:45:34;;;;;;;4.63;3.05;;;;;;;14.82;77.56;100695.22;4942612;29;20047;-81
2022/11/01 06:48:01;;;;;;;6.82;3.53;;;;;;;14.75;77.87;100695.13;4945148;29;20668;-80
2022/11/01 06:50:27;;;;;;;3.45;2.45;;;;;;;14.71;78.28;100706.19;4945842;29;20083;-81
2022/11/01 06:52:56;;;;;;;11.13;2.78;;;;;;;14.70;78.18;100715.91;4939348;29;20107;-80
2022/11/01 06:55:22;;;;;;;7.88;2.80;;;;;;;14.72;77.90;100715.72;4939591;29;20071;-80
2022/11/01 06:57:54;;;;;;;9.80;2.88;;;;;;;14.57;78.08;100713.94;4940088;29;20138;-79
2022/11/01 07:00:22;;;;;;;5.07;2.17;;;;;;;14.46;78.26;100727.53;4941973;29;20414;-80
2022/11/01 07:02:48;;;;;;;4.53;2.30;;;;;;;14.53;77.21;100743.44;4959047;29;20079;-80
2022/11/01 07:05:15;;;;;;;10.38;2.70;;;;;;;14.46;76.79;100740.69;4959604;29;20075;-79
2022/11/01 07:07:42;;;;;;;9.38;2.70;;;;;;;14.36;76.90;100747.97;4960284;29;20074;-79
2022/11/01 07:10:09;;;;;;;7.38;2.47;;;;;;;14.30;76.36;100759.22;4960224;29;20102;-81
2022/11/01 07:12:36;;;;;;;6.85;2.90;;;;;;;14.23;76.57;100764.34;4959527;29;20083;-80
2022/11/01 07:15:05;;;;;;;7.75;3.08;;;;;;;14.15;76.62;100782.88;4969201;23;20328;-79
2022/11/01 07:17:31;;;;;;;10.23;2.50;;;;;;;14.11;76.67;100778.94;4938881;29;20079;-80
2022/11/01 07:19:58;;;;;;;7.60;2.20;;;;;;;14.08;76.74;100792.47;4940415;29;20081;-79
2022/11/01 07:22:24;;;;;;;7.93;3.42;;;;;;;14.00;76.84;100776.72;4941093;29;20102;-80
2022/11/01 07:24:53;;;;;;;13.05;3.22;;;;;;;13.88;77.45;100786.81;4939867;29;20087;-79
2022/11/01 07:27:20;;;;;;;9.38;2.70;;;;;;;13.84;77.85;100811.00;4940378;29;20059;-79
2022/11/01 07:29:47;;;;;;;4.90;2.33;;;;;;;13.84;78.22;100808.38;4938281;29;20111;-79
2022/11/01 07:32:15;;;;;;;7.07;2.42;;;;;;;13.94;77.83;100814.25;4936105;29;20079;-79
2022/11/01 07:34:42;;;;;;;5.47;2.40;;;;;;;14.07;77.43;100816.31;4939639;29;20060;-78
2022/11/01 07:37:08;;;;;;;6.53;2.75;;;;;;;14.07;77.12;100832.91;4928573;29;20108;-78
2022/11/01 07:39:35;;;;;;;6.05;2.75;;;;;;;14.18;76.65;100824.59;4920731;29;20087;-79
2022/11/01 07:42:02;;;;;;;8.00;2.40;;;;;;;14.40;75.79;100840.59;4921712;29;20499;-79
2022/11/01 07:44:29;;;;;;;8.43;2.40;;;;;;;14.57;74.40;100836.88;4930890;29;20079;-80
2022/11/01 07:46:56;;;;;;;6.53;2.53;;;;;;;14.64;72.38;100855.41;4940941;29;20111;-79
2022/11/01 07:49:25;;;;;;;6.60;2.25;;;;;;;14.84;71.05;100854.75;4941617;29;20059;-78
2022/11/01 07:51:52;;;;;;;9.32;2.60;;;;;;;14.81;70.15;100855.09;4940168;29;20055;-79
2022/11/01 07:54:18;;;;;;;10.18;2.83;;;;;;;15.05;69.27;100842.69;4930142;29;20058;-79
2022/11/01 07:56:45;;;;;;;7.22;2.22;;;;;;;15.36;68.29;100845.97;4940649;29;20083;-80
2022/11/01 07:59:11;;;;;;;10.95;2.58;;;;;;;15.28;67.67;100841.63;4941034;29;20506;-78
2022/11/01 08:01:38;;;;;;;9.95;2.92;;;;;;;15.41;67.24;100848.91;4927945;29;20115;-78
2022/11/01 08:04:05;;;;;;;11.23;2.80;;;;;;;15.23;67.24;100853.69;4921011;29;20438;-78
2022/11/01 08:06:33;;;;;;;10.40;3.25;;;;;;;15.04;67.25;100862.16;4935205;29;20090;-79
2022/11/01 08:08:59;;;;;;;14.02;3.30;;;;;;;15.10;67.17;100866.69;4939250;29;20105;-79
2022/11/01 08:11:26;;;;;;;13.43;3.50;;;;;;;15.25;66.75;100856.97;4939757;29;20110;-79
2022/11/01 08:13:53;;;;;;;13.85;3.72;;;;;;;15.09;66.60;100867.69;4942492;29;20407;-80
2022/11/01 08:16:19;;;;;;;10.77;2.90;;;;;;;15.31;66.54;100869.44;4933810;29;20056;-79
2022/11/01 08:18:46;;;;;;;19.10;4.50;;;;;;;15.38;67.07;100867.72;4924157;29;20087;-81
2022/11/01 08:21:17;;;;;;;12.50;3.78;;;;;;;15.56;66.77;100864.72;4925701;29;20056;-80
2022/11/01 08:23:45;;;;;;;13.10;3.30;;;;;;;15.33;66.44;100867.44;4922784;29;20048;-79
2022/11/01 08:26:13;;;;;;;12.98;3.83;;;;;;;15.16;66.87;100868.59;4945718;29;20082;-80
2022/11/01 08:29:00;;;;;;;;;;;;;;;;;;;;;
2022/11/01 08:31:27;;;;;;;9.02;3.30;;;;;;;14.56;67.44;100872.91;4943119;29;20051;-81
2022/11/01 08:33:54;;;;;;;11.63;3.47;;;;;;;14.47;68.39;100889.78;4943175;29;20043;-78
2022/11/01 08:36:21;;;;;;;12.75;3.63;;;;;;;14.50;68.92;100886.78;4939745;29;20075;-79
2022/11/01 08:38:49;;;;;;;10.27;3.00;;;;;;;14.56;69.28;100895.81;4941745;29;20450;-79
2022/11/01 08:41:16;;;;;;;12.02;3.17;;;;;;;14.59;69.41;100900.72;4942586;29;20086;-79
2022/11/01 08:43:42;;;;;;;8.60;2.92;;;;;;;14.67;68.68;100907.72;4941231;29;20150;-79
2022/11/01 08:46:09;;;;;;;13.27;3.40;;;;;;;14.72;68.25;100900.94;4929895;29;20083;-78
2022/11/01 08:48:36;;;;;;;9.93;3.47;;;;;;;14.72;67.30;100905.38;4921576;29;20495;-78
2022/11/01 08:51:04;;;;;;;8.43;2.40;;;;;;;14.73;67.35;100914.91;4919918;29;20542;-77
2022/11/01 08:53:31;;;;;;;8.88;2.40;;;;;;;14.73;67.89;100912.28;4920151;29;20066;-77
2022/11/01 08:55:59;;;;;;;10.80;3.05;;;;;;;14.74;67.64;100920.00;4920876;29;20692;-79
2022/11/01 08:58:25;;;;;;;11.70;2.83;;;;;;;14.80;67.59;100919.31;4925175;29;20135;-79
2022/11/01 09:00:52;;;;;;;8.35;3.20;;;;;;;14.81;68.43;100923.59;4931381;29;20068;-79
2022/11/01 09:03:18;;;;;;;8.10;2.70;;;;;;;14.84;67.79;100936.41;4945163;29;20135;-79
2022/11/01 09:05:46;;;;;;;6.15;2.63;;;;;;;14.92;66.75;100930.25;4945173;29;20352;-78
2022/11/01 09:08:12;;;;;;;12.43;3.08;;;;;;;14.91;66.14;100933.88;4943236;29;20156;-80
2022/11/01 09:10:39;;;;;;;10.75;3.00;;;;;;;15.00;67.13;100927.56;4943753;29;20064;-78
2022/11/01 09:13:07;;;;;;;11.55;3.25;;;;;;;15.06;66.59;100933.94;4941009;29;20052;-79
2022/11/01 09:15:33;;;;;;;12.65;3.20;;;;;;;15.08;66.98;100924.88;4925148;29;20114;-79
2022/11/01 09:18:05;;;;;;;10.05;3.13;;;;;;;15.09;66.73;100925.69;4942032;29;20094;-80
2022/11/01 09:20:31;;;;;;;8.15;3.00;;;;;;;15.10;67.07;100930.78;4943553;29;20087;-78
2022/11/01 09:22:58;;;;;;;10.75;3.03;;;;;;;15.08;67.11;100924.88;4947799;29;20058;-78
2022/11/01 09:25:25;;;;;;;7.28;2.97;;;;;;;15.18;66.55;100932.50;4944688;29;20070;-78
2022/11/01 09:27:51;;;;;;;8.93;2.97;;;;;;;15.16;65.31;100939.75;4940954;29;20052;-79
2022/11/01 09:30:20;;;;;;;9.50;3.30;;;;;;;15.17;65.48;100933.50;4941108;29;20142;-80
2022/11/01 09:32:47;;;;;;;9.75;3.25;;;;;;;15.25;64.91;100933.44;4924521;29;20048;-79
2022/11/01 09:35:13;;;;;;;14.68;3.20;;;;;;;15.26;65.57;100930.59;4923016;29;20102;-77
2022/11/01 09:37:40;;;;;;;11.60;3.17;;;;;;;15.36;65.31;100930.34;4922853;29;20139;-79
2022/11/01 09:40:09;;;;;;;9.02;3.10;;;;;;;15.24;65.17;100926.50;4923485;29;20056;-79
2022/11/01 09:42:41;;;;;;;10.23;3.38;;;;;;;15.31;65.07;100937.97;4923489;29;20092;-78
2022/11/01 09:45:15;;;;;;;8.10;2.83;;;;;;;15.39;65.74;100940.56;4923538;29;20091;-78
2022/11/01 09:47:47;;;;;;;9.35;2.90;;;;;;;15.50;64.61;100944.56;4922467;29;20048;-78
2022/11/01 09:50:18;;;;;;;9.90;2.57;;;;;;;15.58;64.56;100947.97;4934278;29;20075;-79
2022/11/01 09:52:45;;;;;;;10.45;3.40;;;;;;;15.60;64.19;100948.59;4936582;29;20135;-79
2022/11/01 09:55:17;;;;;;;13.10;3.33;;;;;;;15.62;64.79;100935.22;4930142;29;20078;-79
2022/11/01 09:57:45;;;;;;;6.23;2.87;;;;;;;15.62;64.58;100929.94;4935318;29;20112;-80
2022/11/01 10:00:15;;;;;;;9.90;3.13;;;;;;;15.60;64.45;100930.13;4932919;29;20116;-79
2022/11/01 10:03:17;;;;;;;9.02;3.20;;;;;;;15.62;63.90;100939.69;4936039;29;20059;-78
2022/11/01 10:05:50;;;;;;;7.82;2.53;;;;;;;15.64;63.39;100940.31;4925319;29;20071;-79
2022/11/01 10:08:36;;;;;;;9.57;3.20;;;;;;;15.74;63.42;100948.78;4932801;29;20075;-80
2022/11/01 10:11:20;;;;;;;12.15;3.17;;;;;;;15.80;62.48;100953.34;4935172;29;20103;-80
2022/11/01 10:13:55;;;;;;;6.93;2.90;;;;;;;15.80;62.42;100955.97;4928631;29;20539;-78
2022/11/01 10:16:33;;;;;;;8.90;2.90;;;;;;;15.89;62.62;100946.97;4922253;29;20106;-79
2022/11/01 10:19:04;;;;;;;13.45;3.25;;;;;;;15.94;62.44;100957.81;4933679;29;20104;-79
2022/11/01 10:21:35;;;;;;;12.27;2.90;;;;;;;15.96;63.13;100963.72;4931758;29;20052;-80
2022/11/01 10:24:06;;;;;;;10.98;3.30;;;;;;;15.92;63.55;100946.59;4932948;29;20044;-79
2022/11/01 10:26:34;;;;;;;7.30;2.57;;;;;;;15.90;63.61;100948.59;4936563;29;20063;-79
2022/11/01 10:29:05;;;;;;;7.18;2.42;;;;;;;15.98;63.43;100951.16;4932359;29;20048;-79
2022/11/01 10:31:39;;;;;;;7.70;2.97;;;;;;;16.04;63.38;100955.69;4925986;29;20475;-78
2022/11/01 10:34:18;;;;;;;13.50;3.25;;;;;;;16.08;63.74;100962.22;4923555;29;20509;-77
2022/11/01 10:36:46;;;;;;;7.45;2.58;;;;;;;16.14;63.04;100961.50;4929251;29;20130;-81
2022/11/01 10:39:21;;;;;;;15.68;4.63;;;;;;;16.14;63.12;100965.94;4931021;29;20119;-80
2022/11/01 10:41:51;;;;;;;10.02;3.30;;;;;;;16.20;63.50;100968.69;4933821;29;20047;-79
2022/11/01 10:44:28;;;;;;;8.90;2.13;;;;;;;16.27;63.54;100956.38;4935062;29;20044;-80
2022/11/01 10:47:10;;;;;;;;;;;;;;;;;;;;;
2022/11/01 10:49:44;;;;;;;17.92;3.70;;;;;;;16.35;62.51;100970.47;4925680;29;20048;-79
2022/11/01 10:52:15;;;;;;;9.85;2.50;;;;;;;16.39;63.40;100969.13;4930367;29;20155;-80
2022/11/01 10:54:44;;;;;;;6.35;2.95;;;;;;;16.43;63.95;100954.53;4931032;29;20108;-80
2022/11/01 10:57:17;;;;;;;7.78;2.75;;;;;;;16.47;63.42;100969.81;4933612;29;20051;-79
2022/11/01 10:59:47;;;;;;;7.18;2.30;;;;;;;16.53;63.44;100966.44;4936659;29;20075;-79
2022/11/01 11:02:22;;;;;;;6.88;2.75;;;;;;;16.48;63.22;100965.38;4945357;29;20079;-79
2022/11/01 11:04:50;;;;;;;7.50;2.90;;;;;;;16.55;63.84;100956.47;4943019;29;20048;-79
2022/11/01 11:07:18;;;;;;;8.57;2.50;;;;;;;16.53;63.57;100957.69;4941893;29;20059;-80
2022/11/01 11:09:48;;;;;;;9.55;2.90;;;;;;;16.70;64.09;100958.28;4941394;29;20048;-79
2022/11/01 11:12:18;;;;;;;8.23;3.17;;;;;;;16.78;63.37;100953.72;4941092;29;20051;-79
2022/11/01 11:14:47;;;;;;;9.55;3.40;;;;;;;16.73;62.61;100950.81;4942314;29;20051;-81
2022/11/01 11:17:24;;;;;;;10.65;3.42;;;;;;;16.76;62.14;100955.72;4939185;29;20050;-80
2022/11/01 11:19:53;;;;;;;6.05;2.58;;;;;;;16.65;61.92;100948.28;4944348;29;20048;-80
2022/11/01 11:22:22;;;;;;;12.30;2.72;;;;;;;16.77;62.20;100961.81;4934869;29;20048;-80
2022/11/01 11:24:51;;;;;;;6.55;2.88;;;;;;;16.77;62.93;100960.00;4939804;29;20039;-80
2022/11/01 11:27:22;;;;;;;8.38;2.90;;;;;;;16.81;61.70;100957.81;4939500;29;20051;-80
2022/11/01 11:29:52;;;;;;;6.60;2.65;;;;;;;16.82;62.64;100960.25;4945225;29;20084;-81
2022/11/01 11:32:22;;;;;;;8.82;3.08;;;;;;;16.72;62.21;100958.91;4951099;29;20098;-79
2022/11/01 11:34:57;;;;;;;9.70;2.67;;;;;;;16.79;62.44;100960.63;4947521;29;20083;-80
2022/11/01 11:37:28;;;;;;;8.40;2.55;;;;;;;16.87;62.69;100952.56;4930278;29;20062;-78